TAF and METAR

No METAR available for Brest Airport

TAF for Brest Airport

TAF UMBB 201407Z 2015/2024 28005G10MPS 3000 BR BKN010 TX03/2015Z TNM01/2024Z TEMPO 2015/2018 2100 BR BKN007 TEMPO 2018/2024 1100 BR BKN005
Report created 20. jan 15:07

between 20. jan 16:00 - 20. jan 01:00

wind 10 knots from W (280°) with gusts up to 20 knots visibility 3000 meters mist broken clouds (~75% cover) at 1000 feet Max temperature 03° expected today at around 16 o'clock Min temperature -01° expected tomorrow at around 01 o'clock

temporarily between 20. jan 16:00 - 20. jan 19:00

visibility 2100 meters mist broken clouds (~75% cover) at 700 feet

temporarily between 20. jan 19:00 - 20. jan 01:00

visibility 1100 meters mist broken clouds (~75% cover) at 500 feet
Brest Airport in Belarus at 143m

Latest 5 airports